createdAt,value
2019-05-06T00:01:04.900Z,95888.56
2019-05-06T00:03:36.486Z,95886.56
2019-05-06T00:06:08.289Z,95881.22
2019-05-06T00:08:39.572Z,95886.55
2019-05-06T00:11:11.010Z,95875.77
2019-05-06T00:13:44.543Z,95881.23
2019-05-06T00:16:16.217Z,95878.32
2019-05-06T00:18:47.672Z,95885.49
2019-05-06T00:21:19.282Z,95880.05
2019-05-06T00:23:56.004Z,95885.03
2019-05-06T00:26:45.031Z,95885.28
2019-05-06T00:29:18.528Z,95884.94
2019-05-06T00:31:50.037Z,95887.65
2019-05-06T00:34:21.266Z,95887.80
2019-05-06T00:36:54.540Z,95881.39
2019-05-06T00:39:54.033Z,95885.95
2019-05-06T00:42:48.678Z,95879.53
2019-05-06T00:45:20.038Z,95883.13
2019-05-06T00:47:53.522Z,95882.14
2019-05-06T00:50:24.740Z,95886.73
2019-05-06T00:52:59.096Z,95881.03
2019-05-06T00:55:31.193Z,95884.39
2019-05-06T00:58:04.048Z,95880.67
2019-05-06T01:00:38.631Z,95885.09
2019-05-06T01:03:10.011Z,95881.77
2019-05-06T01:05:44.431Z,95882.55
2019-05-06T01:08:15.888Z,95884.02
2019-05-06T01:10:47.896Z,95875.68
2019-05-06T01:13:50.690Z,95876.68
2019-05-06T01:16:22.321Z,95882.05
2019-05-06T01:18:54.272Z,95879.39
2019-05-06T01:21:25.743Z,95878.56
2019-05-06T01:23:57.376Z,95881.31
2019-05-06T01:26:28.663Z,95885.99
2019-05-06T01:29:00.007Z,95889.70
2019-05-06T01:31:42.224Z,95887.98
2019-05-06T01:34:04.744Z,95888.09
2019-05-06T01:36:36.174Z,95891.47
2019-05-06T01:39:19.068Z,95891.85
2019-05-06T01:42:08.258Z,95885.01
2019-05-06T01:44:39.502Z,95888.49
2019-05-06T01:47:11.370Z,95885.52
2019-05-06T01:49:44.225Z,95878.74
2019-05-06T01:52:15.845Z,95883.52
2019-05-06T01:54:47.281Z,95886.14
2019-05-06T01:57:19.152Z,95884.13
2019-05-06T01:59:50.508Z,95878.55
2019-05-06T02:02:23.859Z,95885.36
2019-05-06T02:04:57.069Z,95881.00
2019-05-06T02:07:28.641Z,95877.37
2019-05-06T02:10:03.826Z,95880.03
2019-05-06T02:12:34.360Z,95877.23
2019-05-06T02:15:05.795Z,95884.45
2019-05-06T02:17:37.013Z,95893.88
2019-05-06T02:20:09.636Z,95884.17
2019-05-06T02:23:04.184Z,95880.56
2019-05-06T02:25:40.718Z,95884.13
2019-05-06T02:28:14.195Z,95884.95
2019-05-06T02:31:16.646Z,95880.48
2019-05-06T02:34:01.560Z,95880.69
2019-05-06T02:36:54.953Z,95883.28
2019-05-06T02:39:27.041Z,95886.06
2019-05-06T02:41:58.585Z,95888.53
2019-05-06T02:44:33.393Z,95887.91
2019-05-06T02:47:14.532Z,95887.20
2019-05-06T02:49:53.258Z,95885.34
2019-05-06T02:52:23.812Z,95892.38
2019-05-06T02:54:55.013Z,95899.67
2019-05-06T02:57:26.222Z,95895.98
2019-05-06T02:59:57.633Z,95894.09
2019-05-06T03:02:41.920Z,95892.71
2019-05-06T03:05:04.266Z,95907.33
2019-05-06T03:07:37.636Z,95905.52
2019-05-06T03:10:12.875Z,95904.00
2019-05-06T03:12:43.490Z,95907.22
2019-05-06T03:15:16.798Z,95906.94
2019-05-06T03:17:48.898Z,95909.91
2019-05-06T03:20:43.904Z,95913.31
2019-05-06T03:23:17.483Z,95915.09
2019-05-06T03:25:48.853Z,95913.70
2019-05-06T03:28:23.132Z,95915.89
2019-05-06T03:30:56.676Z,95918.55
2019-05-06T03:33:47.474Z,95914.48
2019-05-06T03:36:15.384Z,95918.23
2019-05-06T03:38:34.712Z,95923.18
2019-05-06T03:41:06.184Z,95927.51
2019-05-06T03:43:37.641Z,95927.91
2019-05-06T03:46:27.889Z,95925.06
2019-05-06T03:49:03.791Z,95925.50
2019-05-06T03:51:36.998Z,95923.14
2019-05-06T03:54:08.604Z,95925.14
2019-05-06T03:56:43.151Z,95922.56
2019-05-06T03:59:13.766Z,95921.39
2019-05-06T04:01:45.614Z,95926.03
2019-05-06T04:04:17.232Z,95934.84
2019-05-06T04:06:48.853Z,95929.61
2019-05-06T04:09:20.132Z,95927.20
2019-05-06T04:11:54.163Z,95931.22
2019-05-06T04:14:25.505Z,95928.28
2019-05-06T04:17:25.113Z,95936.86
2019-05-06T04:20:04.050Z,95941.09
2019-05-06T04:22:46.338Z,95938.52
2019-05-06T04:25:43.196Z,95942.09
2019-05-06T04:28:16.282Z,95943.18
2019-05-06T04:30:47.557Z,95942.47
2019-05-06T04:33:18.748Z,95945.75
2019-05-06T04:35:50.145Z,95942.62
2019-05-06T04:38:24.495Z,95944.34
2019-05-06T04:40:55.820Z,95942.66
2019-05-06T04:43:28.641Z,95946.75
2019-05-06T04:46:03.139Z,95947.78
2019-05-06T04:48:34.910Z,95947.75
2019-05-06T04:51:06.148Z,95950.73
2019-05-06T04:53:37.743Z,95955.25
2019-05-06T04:56:09.474Z,95952.53
2019-05-06T04:58:44.349Z,95958.61
2019-05-06T05:01:27.895Z,95962.50
2019-05-06T05:04:03.269Z,95964.45
2019-05-06T05:06:33.788Z,95965.21
2019-05-06T05:09:06.585Z,95964.50
2019-05-06T05:11:53.183Z,95967.75
2019-05-06T05:14:42.373Z,95966.19
2019-05-06T05:17:35.475Z,95968.45
2019-05-06T05:20:08.759Z,95968.72
2019-05-06T05:22:42.223Z,95968.95
2019-05-06T05:25:13.121Z,95968.10
2019-05-06T05:27:44.640Z,95969.43
2019-05-06T05:30:17.978Z,95965.95
2019-05-06T05:32:49.546Z,95973.68
2019-05-06T05:35:22.611Z,95971.08
2019-05-06T05:37:53.723Z,95970.28
2019-05-06T05:40:24.984Z,95978.53
2019-05-06T05:43:11.635Z,95972.02
2019-05-06T05:45:42.768Z,95972.98
2019-05-06T05:48:27.505Z,95976.08
2019-05-06T05:50:58.767Z,95975.08
2019-05-06T05:53:30.084Z,95978.22
2019-05-06T05:56:02.566Z,95980.39
2019-05-06T05:58:34.083Z,95981.60
2019-05-06T06:01:05.562Z,95983.33
2019-05-06T06:03:36.888Z,95983.98
2019-05-06T06:06:08.551Z,95989.77
2019-05-06T06:08:39.872Z,95988.69
2019-05-06T06:11:23.002Z,95988.77
2019-05-06T06:13:55.861Z,95989.14
2019-05-06T06:16:37.269Z,95989.31
2019-05-06T06:19:22.554Z,95988.66
2019-05-06T06:22:02.730Z,95993.20
2019-05-06T06:24:35.603Z,95995.88
2019-05-06T06:27:06.984Z,95989.80
2019-05-06T06:29:38.225Z,95985.25
2019-05-06T06:32:18.215Z,95989.16
2019-05-06T06:35:10.878Z,95988.90
2019-05-06T06:37:43.015Z,95987.44
2019-05-06T06:40:15.792Z,95980.55
2019-05-06T06:42:52.610Z,95984.52
2019-05-06T06:45:24.192Z,95984.72
2019-05-06T06:47:55.408Z,95982.73
2019-05-06T06:50:26.998Z,95982.09
2019-05-06T06:52:58.573Z,95988.34
2019-05-06T06:55:31.870Z,95985.90
2019-05-06T06:58:12.020Z,95984.34
2019-05-06T07:01:03.178Z,95986.34
2019-05-06T07:04:02.611Z,95980.88
2019-05-06T07:06:42.311Z,95981.52
2019-05-06T07:09:14.068Z,95981.38
2019-05-06T07:11:45.564Z,95983.62
2019-05-06T07:14:17.631Z,95981.08
2019-05-06T07:16:49.116Z,95979.27
2019-05-06T07:19:27.398Z,95974.80
2019-05-06T07:22:00.381Z,95969.57
2019-05-06T07:24:32.510Z,95981.75
2019-05-06T07:27:15.383Z,95976.45
2019-05-06T07:29:48.138Z,95973.34
2019-05-06T07:32:20.407Z,95969.70
2019-05-06T07:34:53.165Z,95967.42
2019-05-06T07:37:25.303Z,95974.53
2019-05-06T07:39:56.888Z,95975.00
2019-05-06T07:42:34.858Z,95964.41
2019-05-06T07:45:38.074Z,95973.84
2019-05-06T07:48:12.858Z,95970.41
2019-05-06T07:50:44.683Z,95970.95
2019-05-06T07:53:15.904Z,95973.16
2019-05-06T07:55:47.239Z,95977.94
2019-05-06T07:58:18.427Z,95976.17
2019-05-06T08:00:52.366Z,95969.51
2019-05-06T08:03:26.349Z,95982.54
2019-05-06T08:05:58.769Z,95978.36
2019-05-06T08:08:33.499Z,95982.92
2019-05-06T08:11:05.724Z,95984.55
2019-05-06T08:13:37.068Z,95986.63
2019-05-06T08:16:08.758Z,95990.41
2019-05-06T08:18:42.518Z,95990.84
2019-05-06T08:21:22.244Z,95987.83
2019-05-06T08:23:55.121Z,95992.94
2019-05-06T08:26:26.546Z,95996.48
2019-05-06T08:28:57.753Z,95998.09
2019-05-06T08:31:28.964Z,95989.37
2019-05-06T08:34:02.576Z,95990.83
2019-05-06T08:37:12.165Z,95991.08
2019-05-06T08:39:45.983Z,95996.86
2019-05-06T08:42:16.651Z,95997.98
2019-05-06T08:44:49.467Z,96001.98
2019-05-06T08:47:22.339Z,95991.88
2019-05-06T08:50:21.691Z,95998.82
2019-05-06T08:53:16.209Z,95992.27
2019-05-06T08:55:47.848Z,95990.45
2019-05-06T08:58:19.145Z,95995.03
2019-05-06T09:01:02.825Z,95994.86
2019-05-06T09:03:34.008Z,95993.44
2019-05-06T09:06:07.460Z,95989.75
2019-05-06T09:08:38.593Z,95990.91
2019-05-06T09:11:12.193Z,95986.75
2019-05-06T09:13:43.725Z,95980.97
2019-05-06T09:16:14.944Z,95987.08
2019-05-06T09:18:46.487Z,95987.16
2019-05-06T09:21:18.179Z,95989.63
2019-05-06T09:23:49.383Z,95992.45
2019-05-06T09:26:24.889Z,95991.14
2019-05-06T09:29:19.302Z,95991.95
2019-05-06T09:31:53.568Z,95991.20
2019-05-06T09:34:34.329Z,95993.34
2019-05-06T09:37:16.288Z,95995.72
2019-05-06T09:39:48.600Z,95997.86
2019-05-06T09:42:23.365Z,96008.78
2019-05-06T09:44:55.212Z,96008.24
2019-05-06T09:47:42.399Z,96002.80
2019-05-06T09:50:16.266Z,96002.06
2019-05-06T09:52:47.543Z,95991.95
2019-05-06T09:55:56.080Z,95993.86
2019-05-06T09:58:32.307Z,95994.11
2019-05-06T10:01:05.032Z,95996.47
2019-05-06T10:03:37.435Z,95992.91
2019-05-06T10:06:08.724Z,95990.84
2019-05-06T10:08:40.230Z,95995.98
2019-05-06T10:11:11.641Z,96002.82
2019-05-06T10:13:43.190Z,96004.88
2019-05-06T10:16:14.805Z,96005.38
2019-05-06T10:18:46.038Z,96000.44
2019-05-06T10:21:17.287Z,95997.83
2019-05-06T10:23:48.507Z,95991.08
2019-05-06T10:26:20.058Z,95987.27
2019-05-06T10:29:02.319Z,95996.44
2019-05-06T10:31:39.753Z,96001.30
2019-05-06T10:34:13.845Z,96015.36
2019-05-06T10:37:11.496Z,96009.58
2019-05-06T10:39:35.601Z,96021.48
2019-05-06T10:42:13.347Z,96024.77
2019-05-06T10:45:09.148Z,96020.20
2019-05-06T10:47:42.338Z,96017.63
2019-05-06T10:50:14.057Z,96018.80
2019-05-06T10:53:03.371Z,96012.24
2019-05-06T10:55:35.589Z,96006.28
2019-05-06T10:58:06.829Z,96002.64
2019-05-06T11:00:38.280Z,96003.22
2019-05-06T11:03:15.481Z,96000.08
2019-05-06T11:05:46.905Z,95990.98
2019-05-06T11:08:19.448Z,95990.02
2019-05-06T11:10:53.396Z,95991.13
2019-05-06T11:13:27.588Z,95983.02
2019-05-06T11:15:58.877Z,95983.92
2019-05-06T11:18:33.500Z,95978.67
2019-05-06T11:21:04.746Z,95984.69
2019-05-06T11:23:36.220Z,95984.84
2019-05-06T11:26:09.179Z,95986.49
2019-05-06T11:28:44.483Z,95997.74
2019-05-06T11:31:46.892Z,95988.05
2019-05-06T11:34:32.617Z,95987.79
2019-05-06T11:37:23.227Z,95987.22
2019-05-06T11:39:53.953Z,95985.91
2019-05-06T11:42:32.111Z,95983.02
2019-05-06T11:44:58.660Z,95989.75
2019-05-06T11:47:32.322Z,95980.24
2019-05-06T11:50:05.063Z,95980.35
2019-05-06T11:52:35.889Z,95973.84
2019-05-06T11:55:07.595Z,95974.76
2019-05-06T11:57:41.648Z,95971.02
2019-05-06T12:00:16.603Z,95979.19
2019-05-06T12:02:49.137Z,95979.55
2019-05-06T12:05:22.334Z,95975.34
2019-05-06T12:08:04.573Z,95982.80
2019-05-06T12:10:27.542Z,95978.48
2019-05-06T12:12:58.991Z,95978.60
2019-05-06T12:15:30.303Z,95981.61
2019-05-06T12:18:03.697Z,95980.98
2019-05-06T12:20:35.473Z,95980.45
2019-05-06T12:23:06.812Z,95985.08
2019-05-06T12:25:38.035Z,95980.38
2019-05-06T12:28:09.603Z,95976.85
2019-05-06T12:30:42.751Z,95975.91
2019-05-06T12:33:33.106Z,95968.48
2019-05-06T12:36:16.155Z,95969.39
2019-05-06T12:39:06.497Z,95970.47
2019-05-06T12:41:53.974Z,95969.55
2019-05-06T12:44:25.210Z,95974.06
2019-05-06T12:47:20.510Z,95973.03
2019-05-06T12:49:53.413Z,95969.66
2019-05-06T12:52:25.022Z,95980.46
2019-05-06T12:55:16.442Z,95974.77
2019-05-06T12:57:30.014Z,95971.88
2019-05-06T13:00:03.471Z,95975.72
2019-05-06T13:02:35.233Z,95975.58
2019-05-06T13:05:06.832Z,95973.84
2019-05-06T13:07:44.386Z,95972.09
2019-05-06T13:10:17.132Z,95969.20
2019-05-06T13:12:54.230Z,95966.88
2019-05-06T13:15:25.637Z,95967.20
2019-05-06T13:17:57.245Z,95966.91
2019-05-06T13:20:34.083Z,95958.16
2019-05-06T13:23:26.057Z,95963.48
2019-05-06T13:25:57.736Z,95968.13
2019-05-06T13:28:33.917Z,95968.13
2019-05-06T13:31:19.427Z,95970.43
2019-05-06T13:34:03.293Z,95963.28
2019-05-06T13:36:34.679Z,95969.73
2019-05-06T13:39:14.726Z,95969.56
2019-05-06T13:41:42.143Z,95959.98
2019-05-06T13:44:18.150Z,95962.69
2019-05-06T13:46:56.089Z,95965.45
2019-05-06T13:49:55.722Z,95955.48
2019-05-06T13:52:32.871Z,95955.92
2019-05-06T13:55:04.704Z,95953.66
2019-05-06T13:57:39.387Z,95944.52
2019-05-06T14:00:13.620Z,95955.39
2019-05-06T14:02:56.469Z,95954.11
2019-05-06T14:05:28.519Z,95957.46
2019-05-06T14:08:04.172Z,95963.27
2019-05-06T14:10:33.891Z,95966.47
2019-05-06T14:13:05.522Z,95971.27
2019-05-06T14:15:36.719Z,95971.26
2019-05-06T14:18:08.300Z,95980.94
2019-05-06T14:20:39.667Z,95983.61
2019-05-06T14:23:12.722Z,95976.52
2019-05-06T14:26:05.593Z,95984.06
2019-05-06T14:28:43.037Z,95979.03
2019-05-06T14:31:19.712Z,95974.53
2019-05-06T14:33:52.216Z,95971.03
2019-05-06T14:36:27.233Z,95974.63
2019-05-06T14:38:56.816Z,95980.67
2019-05-06T14:41:29.111Z,95983.34
2019-05-06T14:44:04.937Z,95978.14
2019-05-06T14:47:07.291Z,95990.78
2019-05-06T14:49:38.861Z,95992.50
2019-05-06T14:52:10.066Z,95980.25
2019-05-06T14:54:53.265Z,95985.19
2019-05-06T14:57:25.421Z,95993.02
2019-05-06T14:59:56.692Z,95993.76
2019-05-06T15:02:28.832Z,95996.15
2019-05-06T15:05:02.731Z,95994.33
2019-05-06T15:07:33.235Z,95990.29
2019-05-06T15:10:18.870Z,95992.35
2019-05-06T15:12:37.997Z,95994.05
2019-05-06T15:15:12.085Z,95993.47
2019-05-06T15:17:44.369Z,95998.69
2019-05-06T15:20:15.800Z,96000.20
2019-05-06T15:22:47.139Z,96002.44
2019-05-06T15:25:18.356Z,95997.77
2019-05-06T15:27:50.005Z,96003.56
2019-05-06T15:30:27.923Z,96005.36
2019-05-06T15:32:59.524Z,96005.85
2019-05-06T15:36:06.967Z,96008.02
2019-05-06T15:38:38.872Z,96011.36
2019-05-06T15:41:10.289Z,96018.38
2019-05-06T15:43:41.556Z,96008.05
2019-05-06T15:46:12.976Z,96013.63
2019-05-06T15:48:44.312Z,96012.58
2019-05-06T15:51:15.668Z,96023.16
2019-05-06T15:53:46.978Z,96021.75
2019-05-06T15:56:18.332Z,96027.33
2019-05-06T15:58:50.312Z,96023.04
2019-05-06T16:01:23.491Z,96022.11
2019-05-06T16:03:55.228Z,96031.61
2019-05-06T16:06:27.691Z,96030.36
2019-05-06T16:09:03.467Z,96024.78
2019-05-06T16:11:33.918Z,96028.38
2019-05-06T16:14:05.769Z,96030.34
2019-05-06T16:16:37.248Z,96024.17
2019-05-06T16:19:08.468Z,96027.45
2019-05-06T16:21:42.997Z,96026.89
2019-05-06T16:24:18.333Z,96022.92
2019-05-06T16:26:49.796Z,96025.35
2019-05-06T16:29:35.510Z,96024.88
2019-05-06T16:32:13.686Z,96025.94
2019-05-06T16:34:45.145Z,96029.09
2019-05-06T16:37:16.906Z,96034.43
2019-05-06T16:39:48.339Z,96038.86
2019-05-06T16:42:22.258Z,96038.95
2019-05-06T16:44:52.915Z,96042.88
2019-05-06T16:47:52.476Z,96037.21
2019-05-06T16:50:24.347Z,96040.30
2019-05-06T16:52:55.667Z,96042.03
2019-05-06T16:55:36.811Z,96040.05
2019-05-06T16:58:12.126Z,96046.25
2019-05-06T17:00:43.646Z,96055.77
2019-05-06T17:03:23.130Z,96052.73
2019-05-06T17:06:25.058Z,96051.80
2019-05-06T17:08:56.292Z,96057.14
2019-05-06T17:11:31.221Z,96056.48
2019-05-06T17:14:02.961Z,96056.52
2019-05-06T17:16:34.480Z,96056.14
2019-05-06T17:19:05.953Z,96060.77
2019-05-06T17:21:37.492Z,96061.78
2019-05-06T17:24:08.843Z,96063.39
2019-05-06T17:26:42.586Z,96066.59
2019-05-06T17:29:38.896Z,96070.30
2019-05-06T17:32:28.732Z,96073.59
2019-05-06T17:35:02.651Z,96074.47
2019-05-06T17:37:55.503Z,96079.53
2019-05-06T17:40:26.811Z,96076.16
2019-05-06T17:42:58.161Z,96078.17
2019-05-06T17:46:01.387Z,96076.61
2019-05-06T17:48:52.689Z,96081.39
2019-05-06T17:51:33.775Z,96081.95
2019-05-06T17:54:05.616Z,96083.45
2019-05-06T17:56:37.132Z,96091.33
2019-05-06T17:59:08.614Z,96101.38
2019-05-06T18:01:46.559Z,96100.03
2019-05-06T18:04:17.769Z,96105.42
2019-05-06T18:06:48.978Z,96109.97
2019-05-06T18:09:22.363Z,96115.50
2019-05-06T18:11:58.838Z,96117.23
2019-05-06T18:14:26.486Z,96111.86
2019-05-06T18:16:57.875Z,96117.57
2019-05-06T18:19:29.625Z,96126.93
2019-05-06T18:22:02.516Z,96123.55
2019-05-06T18:24:34.605Z,96128.95
2019-05-06T18:27:06.347Z,96134.77
2019-05-06T18:29:37.644Z,96135.94
2019-05-06T18:32:08.940Z,96138.69
2019-05-06T18:34:40.450Z,96141.78
2019-05-06T18:37:12.815Z,96144.19
2019-05-06T18:39:44.399Z,96146.47
2019-05-06T18:42:19.967Z,96147.47
2019-05-06T18:44:49.147Z,96150.17
2019-05-06T18:47:20.598Z,96152.70
2019-05-06T18:49:52.458Z,96158.80
2019-05-06T18:52:24.046Z,96160.94
2019-05-06T18:54:55.766Z,96164.88
2019-05-06T18:57:27.155Z,96168.39
2019-05-06T18:59:58.484Z,96171.45
2019-05-06T19:02:29.946Z,96167.63
2019-05-06T19:05:08.096Z,96174.94
2019-05-06T19:07:39.597Z,96182.80
2019-05-06T19:10:30.162Z,96181.08
2019-05-06T19:13:02.073Z,96181.08
2019-05-06T19:15:33.994Z,96191.34
2019-05-06T19:18:05.472Z,96191.20
2019-05-06T19:20:37.010Z,96196.91
2019-05-06T19:23:08.281Z,96197.41
2019-05-06T19:25:39.663Z,96194.78
2019-05-06T19:28:12.120Z,96198.08
2019-05-06T19:30:44.298Z,96206.91
2019-05-06T19:33:15.905Z,96206.49
2019-05-06T19:35:47.434Z,96210.76
2019-05-06T19:38:21.597Z,96215.80
2019-05-06T19:40:54.156Z,96213.29
2019-05-06T19:43:28.090Z,96205.55
2019-05-06T19:45:59.387Z,96222.39
2019-05-06T19:48:32.821Z,96221.09
2019-05-06T19:51:04.177Z,96222.47
2019-05-06T19:53:35.619Z,96225.45
2019-05-06T19:56:08.702Z,96230.64
2019-05-06T19:58:40.026Z,96221.64
2019-05-06T20:01:11.546Z,96226.19
2019-05-06T20:03:43.023Z,96227.37
2019-05-06T20:06:34.795Z,96228.58
2019-05-06T20:09:39.381Z,96235.73
2019-05-06T20:12:17.122Z,96233.83
2019-05-06T20:14:48.398Z,96229.36
2019-05-06T20:17:22.139Z,96231.64
2019-05-06T20:19:53.252Z,96232.02
2019-05-06T20:22:24.781Z,96228.11
2019-05-06T20:24:56.361Z,96234.55
2019-05-06T20:27:27.728Z,96235.71
2019-05-06T20:29:59.310Z,96234.00
2019-05-06T20:32:32.302Z,96241.64
2019-05-06T20:35:06.322Z,96243.62
2019-05-06T20:37:36.694Z,96242.98
2019-05-06T20:40:07.964Z,96240.89
2019-05-06T20:42:39.161Z,96239.44
2019-05-06T20:45:12.699Z,96236.88
2019-05-06T20:47:44.082Z,96236.14
2019-05-06T20:50:15.724Z,96232.52
2019-05-06T20:52:47.309Z,96234.55
2019-05-06T20:55:18.505Z,96237.10
2019-05-06T20:57:50.160Z,96235.09
2019-05-06T21:00:22.447Z,96237.02
2019-05-06T21:02:54.287Z,96242.09
2019-05-06T21:05:25.566Z,96234.53
2019-05-06T21:07:57.070Z,96243.98
2019-05-06T21:10:28.298Z,96236.63
2019-05-06T21:12:59.512Z,96239.53
2019-05-06T21:15:32.368Z,96243.48
2019-05-06T21:18:04.526Z,96244.88
2019-05-06T21:20:36.346Z,96245.59
2019-05-06T21:23:08.040Z,96244.67
2019-05-06T21:25:39.640Z,96242.20
2019-05-06T21:28:12.797Z,96244.37
2019-05-06T21:30:43.976Z,96252.16
2019-05-06T21:33:15.702Z,96251.36
2019-05-06T21:35:48.735Z,96250.69
2019-05-06T21:38:20.016Z,96250.86
2019-05-06T21:40:52.937Z,96254.62
2019-05-06T21:43:25.818Z,96256.22
2019-05-06T21:45:59.098Z,96254.95
2019-05-06T21:48:30.587Z,96255.71
2019-05-06T21:51:02.372Z,96253.34
2019-05-06T21:53:33.980Z,96250.12
2019-05-06T21:56:05.271Z,96252.55
2019-05-06T21:58:36.458Z,96255.48
2019-05-06T22:01:08.651Z,96263.78
2019-05-06T22:03:40.086Z,96257.34
2019-05-06T22:06:12.962Z,96260.27
2019-05-06T22:08:44.598Z,96260.23
2019-05-06T22:11:15.975Z,96257.69
2019-05-06T22:13:58.884Z,96251.40
2019-05-06T22:16:22.901Z,96258.73
2019-05-06T22:18:53.833Z,96254.14
2019-05-06T22:21:26.877Z,96248.71
2019-05-06T22:23:59.752Z,96243.98
2019-05-06T22:26:32.520Z,96252.50
2019-05-06T22:29:04.236Z,96243.25
2019-05-06T22:31:35.819Z,96244.97
2019-05-06T22:34:07.095Z,96243.42
2019-05-06T22:36:39.211Z,96249.91
2019-05-06T22:39:12.036Z,96247.23
2019-05-06T22:41:44.139Z,96254.05
2019-05-06T22:44:17.135Z,96249.66
2019-05-06T22:46:48.863Z,96247.42
2019-05-06T22:49:22.471Z,96253.28
2019-05-06T22:51:53.261Z,96241.77
2019-05-06T22:54:24.674Z,96241.67
2019-05-06T22:56:56.008Z,96243.50
2019-05-06T22:59:27.337Z,96245.43
2019-05-06T23:02:06.023Z,96241.03
2019-05-06T23:04:38.112Z,96245.11
2019-05-06T23:07:09.476Z,96247.47
2019-05-06T23:09:42.502Z,96250.19
2019-05-06T23:12:13.728Z,96256.13
2019-05-06T23:14:45.091Z,96253.64
2019-05-06T23:17:16.392Z,96250.39
2019-05-06T23:19:48.044Z,96251.84
2019-05-06T23:22:19.416Z,96249.53
2019-05-06T23:24:52.257Z,96255.33
2019-05-06T23:27:23.887Z,96247.28
2019-05-06T23:29:56.737Z,96252.66
2019-05-06T23:32:27.917Z,96248.92
2019-05-06T23:34:59.170Z,96247.30
2019-05-06T23:37:28.783Z,96245.84
2019-05-06T23:40:39.170Z,96249.58
2019-05-06T23:43:46.339Z,96246.22
2019-05-06T23:46:53.307Z,96240.58
2019-05-06T23:50:00.783Z,96235.56
2019-05-06T23:53:08.371Z,96234.79
2019-05-06T23:56:15.707Z,96230.41
2019-05-06T23:58:47.495Z,96240.84
